createdAt,value
2023-04-23T00:00:25.812Z,99082.63
2023-04-23T00:02:54.538Z,99084.06
2023-04-23T00:05:23.452Z,99080.78
2023-04-23T00:07:50.551Z,99083.47
2023-04-23T00:10:18.387Z,99085.91
2023-04-23T00:12:45.925Z,99083.38
2023-04-23T00:15:14.239Z,99091.22
2023-04-23T00:17:41.223Z,99082.56
2023-04-23T00:20:09.362Z,99086.75
2023-04-23T00:22:36.374Z,99084.16
2023-04-23T00:25:03.571Z,99080.97
2023-04-23T00:27:30.571Z,99083.44
2023-04-23T00:29:57.551Z,99079.28
2023-04-23T00:32:24.728Z,99079.94
2023-04-23T00:34:51.901Z,99088.56
2023-04-23T00:37:18.733Z,99092.84
2023-04-23T00:39:45.859Z,99082.50
2023-04-23T00:42:12.826Z,99084.25
2023-04-23T00:44:41.060Z,99097.13
2023-04-23T00:47:08.317Z,99093.56
2023-04-23T00:49:36.256Z,99094.44
2023-04-23T00:52:06.327Z,99086.56
2023-04-23T00:54:33.257Z,99085.75
2023-04-23T00:57:00.472Z,99081.53
2023-04-23T00:59:28.305Z,99093.72
2023-04-23T01:01:56.469Z,99081.53
2023-04-23T01:04:24.797Z,99087.66
2023-04-23T01:06:51.945Z,99091.22
2023-04-23T01:09:18.965Z,99090.41
2023-04-23T01:11:47.568Z,99085.09
2023-04-23T01:14:14.588Z,99083.31
2023-04-23T01:16:41.657Z,99095.38
2023-04-23T01:19:10.364Z,99093.47
2023-04-23T01:21:40.867Z,99095.25
2023-04-23T01:24:09.649Z,99101.25
2023-04-23T01:26:36.521Z,99102.88
2023-04-23T01:29:03.812Z,99110.56
2023-04-23T01:31:31.365Z,99090.56
2023-04-23T01:34:00.483Z,99107.91
2023-04-23T01:36:27.512Z,99103.53
2023-04-23T01:38:54.492Z,99103.63
2023-04-23T01:41:22.952Z,99100.81
2023-04-23T01:43:50.000Z,99097.28
2023-04-23T01:46:17.126Z,99093.97
2023-04-23T01:48:44.153Z,99108.53
2023-04-23T01:51:11.224Z,99106.00
2023-04-23T01:53:38.171Z,99098.78
2023-04-23T01:56:05.746Z,99099.59
2023-04-23T01:58:32.757Z,99108.09
2023-04-23T02:00:59.820Z,99109.63
2023-04-23T02:03:27.277Z,99109.03
2023-04-23T02:05:55.749Z,99102.06
2023-04-23T02:08:23.288Z,99111.56
2023-04-23T02:10:50.304Z,99111.50
2023-04-23T02:13:17.573Z,99113.22
2023-04-23T02:15:45.098Z,99110.66
2023-04-23T02:18:12.347Z,99116.53
2023-04-23T02:20:41.203Z,99112.09
2023-04-23T02:23:09.131Z,99110.47
2023-04-23T02:25:38.722Z,99117.25
2023-04-23T02:28:07.929Z,99116.16
2023-04-23T02:30:35.680Z,99123.06
2023-04-23T02:33:03.916Z,99121.94
2023-04-23T02:35:31.665Z,99122.03
2023-04-23T02:37:58.681Z,99109.72
2023-04-23T02:40:25.832Z,99112.44
2023-04-23T02:42:52.977Z,99122.78
2023-04-23T02:45:20.066Z,99114.31
2023-04-23T02:47:47.326Z,99118.53
2023-04-23T02:50:14.336Z,99115.88
2023-04-23T02:52:41.621Z,99098.16
2023-04-23T02:55:09.688Z,99103.66
2023-04-23T02:57:40.652Z,99114.38
2023-04-23T03:00:08.657Z,99107.13
2023-04-23T03:02:35.930Z,99102.91
2023-04-23T03:05:03.035Z,99101.16
2023-04-23T03:07:30.249Z,99103.94
2023-04-23T03:09:57.204Z,99111.56
2023-04-23T03:12:24.314Z,99107.91
2023-04-23T03:14:51.394Z,99107.28
2023-04-23T03:17:18.340Z,99113.34
2023-04-23T03:19:45.501Z,99111.66
2023-04-23T03:22:12.530Z,99112.38
2023-04-23T03:24:39.790Z,99110.03
2023-04-23T03:27:06.956Z,99117.00
2023-04-23T03:29:34.179Z,99109.94
2023-04-23T03:32:01.152Z,99109.94
2023-04-23T03:34:31.320Z,99111.81
2023-04-23T03:36:58.625Z,99109.19
2023-04-23T03:39:25.531Z,99116.09
2023-04-23T03:41:52.497Z,99115.25
2023-04-23T03:44:23.305Z,99104.63
2023-04-23T03:46:50.423Z,99107.91
2023-04-23T03:49:17.426Z,99105.28
2023-04-23T03:51:44.593Z,99113.00
2023-04-23T03:54:11.727Z,99088.91
2023-04-23T03:56:38.730Z,99114.13
2023-04-23T03:59:05.890Z,99113.06
2023-04-23T04:01:33.317Z,99114.00
2023-04-23T04:04:00.431Z,99108.91
2023-04-23T04:06:27.464Z,99118.50
2023-04-23T04:08:54.254Z,99116.16
2023-04-23T04:11:21.149Z,99117.13
2023-04-23T04:13:48.100Z,99123.59
2023-04-23T04:16:15.078Z,99117.94
2023-04-23T04:18:42.217Z,99118.03
2023-04-23T04:21:09.092Z,99120.97
2023-04-23T04:23:36.528Z,99118.56
2023-04-23T04:26:03.449Z,99129.22
2023-04-23T04:28:30.560Z,99128.16
2023-04-23T04:30:57.732Z,99125.69
2023-04-23T04:33:26.090Z,99135.50
2023-04-23T04:35:53.101Z,99129.03
2023-04-23T04:38:20.146Z,99136.97
2023-04-23T04:40:47.054Z,99135.50
2023-04-23T04:43:13.957Z,99142.69
2023-04-23T04:45:40.807Z,99135.06
2023-04-23T04:48:07.644Z,99139.59
2023-04-23T04:50:35.231Z,99140.53
2023-04-23T04:53:02.049Z,99145.00
2023-04-23T04:55:28.878Z,99151.09
2023-04-23T04:57:56.153Z,99148.56
2023-04-23T05:00:28.044Z,99145.13
2023-04-23T05:02:55.581Z,99145.16
2023-04-23T05:05:24.081Z,99151.22
2023-04-23T05:07:51.199Z,99144.16
2023-04-23T05:10:18.121Z,99145.00
2023-04-23T05:12:45.069Z,99137.97
2023-04-23T05:15:13.536Z,99138.72
2023-04-23T05:17:41.469Z,99137.69
2023-04-23T05:20:12.623Z,99142.69
2023-04-23T05:22:41.474Z,99131.19
2023-04-23T05:25:10.108Z,99138.72
2023-04-23T05:27:36.965Z,99135.88
2023-04-23T05:30:06.028Z,99138.34
2023-04-23T05:32:32.978Z,99139.03
2023-04-23T05:35:00.720Z,99138.25
2023-04-23T05:37:27.516Z,99137.50
2023-04-23T05:39:54.644Z,99148.53
2023-04-23T05:42:21.927Z,99149.00
2023-04-23T05:44:48.760Z,99141.88
2023-04-23T05:47:15.939Z,99132.72
2023-04-23T05:49:42.880Z,99136.81
2023-04-23T05:52:09.724Z,99131.00
2023-04-23T05:54:36.523Z,99137.44
2023-04-23T05:57:04.626Z,99135.56
2023-04-23T05:59:32.214Z,99137.91
2023-04-23T06:01:59.140Z,99127.06
2023-04-23T06:04:26.373Z,99123.47
2023-04-23T06:06:53.350Z,99126.19
2023-04-23T06:09:20.244Z,99119.69
2023-04-23T06:11:47.207Z,99119.22
2023-04-23T06:14:14.138Z,99114.44
2023-04-23T06:16:40.937Z,99118.63
2023-04-23T06:19:07.867Z,99119.47
2023-04-23T06:21:34.687Z,99119.31
2023-04-23T06:24:01.537Z,99106.31
2023-04-23T06:26:28.479Z,99107.84
2023-04-23T06:28:55.361Z,99104.28
2023-04-23T06:31:22.270Z,99106.41
2023-04-23T06:33:49.145Z,99109.09
2023-04-23T06:36:16.109Z,99108.38
2023-04-23T06:38:44.728Z,99098.41
2023-04-23T06:41:13.133Z,99101.50
2023-04-23T06:43:39.971Z,99106.75
2023-04-23T06:46:06.802Z,99105.94
2023-04-23T06:48:33.905Z,99091.09
2023-04-23T06:51:00.794Z,99096.84
2023-04-23T06:53:27.611Z,99094.75
2023-04-23T06:55:54.470Z,99093.31
2023-04-23T06:58:23.492Z,99091.63
2023-04-23T07:00:50.415Z,99088.13
2023-04-23T07:03:17.690Z,99085.59
2023-04-23T07:05:44.558Z,99092.50
2023-04-23T07:08:11.371Z,99084.34
2023-04-23T07:10:38.366Z,99089.22
2023-04-23T07:13:05.175Z,99081.84
2023-04-23T07:15:31.985Z,99082.63
2023-04-23T07:17:59.021Z,99082.22
2023-04-23T07:20:26.347Z,99079.16
2023-04-23T07:22:53.206Z,99072.91
2023-04-23T07:25:21.610Z,99069.97
2023-04-23T07:27:48.614Z,99075.34
2023-04-23T07:30:16.361Z,99073.84
2023-04-23T07:32:43.766Z,99063.53
2023-04-23T07:35:11.559Z,99066.00
2023-04-23T07:37:38.562Z,99063.25
2023-04-23T07:40:06.248Z,99068.59
2023-04-23T07:42:33.024Z,99069.69
2023-04-23T07:45:00.105Z,99078.06
2023-04-23T07:47:27.313Z,99076.13
2023-04-23T07:49:54.192Z,99065.41
2023-04-23T07:52:21.169Z,99072.53
2023-04-23T07:54:48.009Z,99069.22
2023-04-23T07:57:14.806Z,99069.09
2023-04-23T07:59:42.054Z,99069.81
2023-04-23T08:02:09.427Z,99071.63
2023-04-23T08:04:36.416Z,99065.06
2023-04-23T08:07:03.873Z,99074.44
2023-04-23T08:09:30.716Z,99068.56
2023-04-23T08:11:57.915Z,99064.31
2023-04-23T08:14:24.799Z,99076.34
2023-04-23T08:16:51.687Z,99061.94
2023-04-23T08:19:18.693Z,99057.59
2023-04-23T08:21:45.594Z,99052.78
2023-04-23T08:24:12.518Z,99060.78
2023-04-23T08:26:39.310Z,99049.75
2023-04-23T08:29:06.292Z,99059.34
2023-04-23T08:31:33.420Z,99050.78
2023-04-23T08:34:00.368Z,99050.81
2023-04-23T08:36:27.788Z,99048.25
2023-04-23T08:38:54.900Z,99043.28
2023-04-23T08:41:27.493Z,99049.50
2023-04-23T08:44:03.267Z,99047.50
2023-04-23T08:46:33.048Z,99043.25
2023-04-23T08:49:03.355Z,99037.47
2023-04-23T08:51:32.697Z,99050.66
2023-04-23T08:54:05.128Z,99030.66
2023-04-23T08:56:32.874Z,99028.56
2023-04-23T08:59:00.028Z,99018.31
2023-04-23T09:01:26.923Z,99023.06
2023-04-23T09:03:54.208Z,99027.09
2023-04-23T09:06:22.108Z,99011.38
2023-04-23T09:08:49.189Z,99009.91
2023-04-23T09:11:17.302Z,99017.44
2023-04-23T09:13:44.202Z,99003.88
2023-04-23T09:16:11.460Z,99005.53
2023-04-23T09:18:38.933Z,98999.91
2023-04-23T09:21:07.350Z,99005.56
2023-04-23T09:23:34.902Z,99001.69
2023-04-23T09:26:06.676Z,99005.28
2023-04-23T09:28:38.124Z,99011.28
2023-04-23T09:31:06.454Z,98999.63
2023-04-23T09:33:35.426Z,99005.44
2023-04-23T09:36:15.192Z,98989.69
2023-04-23T09:38:42.187Z,98980.13
2023-04-23T09:41:26.100Z,98979.00
2023-04-23T09:43:57.201Z,98985.53
2023-04-23T09:46:37.507Z,98989.19
2023-04-23T09:49:07.966Z,98981.03
2023-04-23T09:51:42.322Z,98981.03
2023-04-23T09:54:27.830Z,98972.81
2023-04-23T09:56:59.970Z,98959.84
2023-04-23T09:59:45.959Z,98960.22
2023-04-23T10:02:13.877Z,98964.16
2023-04-23T10:04:42.212Z,98956.78
2023-04-23T10:09:43.695Z,98958.69
2023-04-23T10:12:27.846Z,98955.38
2023-04-23T10:14:59.879Z,98950.19
2023-04-23T10:17:27.186Z,98948.38
2023-04-23T10:19:55.834Z,98946.91
2023-04-23T10:22:24.345Z,98941.69
2023-04-23T10:24:56.503Z,98937.31
2023-04-23T10:27:36.722Z,98933.91
2023-04-23T10:30:13.582Z,98934.38
2023-04-23T10:32:41.240Z,98931.06
2023-04-23T10:35:09.594Z,98930.00
2023-04-23T10:37:37.768Z,98921.72
2023-04-23T10:40:12.625Z,98924.81
2023-04-23T10:42:40.940Z,98912.94
2023-04-23T10:47:49.147Z,98915.28
2023-04-23T10:50:58.345Z,98906.47
2023-04-23T10:53:32.043Z,98898.94
2023-04-23T10:56:10.307Z,98904.06
2023-04-23T10:58:53.268Z,98911.75
2023-04-23T11:01:22.318Z,98897.09
2023-04-23T11:03:49.397Z,98903.44
2023-04-23T11:06:40.198Z,98891.72
2023-04-23T11:09:34.991Z,98883.78
2023-04-23T11:12:02.961Z,98880.59
2023-04-23T11:14:46.176Z,98867.41
2023-04-23T11:17:14.450Z,98872.56
2023-04-23T11:19:42.454Z,98870.97
2023-04-23T11:22:19.549Z,98872.19
2023-04-23T11:24:49.491Z,98866.94
2023-04-23T11:27:18.460Z,98869.09
2023-04-23T11:29:46.570Z,98878.78
2023-04-23T11:32:17.248Z,98875.22
2023-04-23T11:34:46.196Z,98865.19
2023-04-23T11:37:15.584Z,98858.84
2023-04-23T11:39:44.813Z,98857.59
2023-04-23T11:42:15.553Z,98859.25
2023-04-23T11:44:46.344Z,98859.56
2023-04-23T11:47:14.667Z,98859.00
2023-04-23T11:49:43.591Z,98864.06
2023-04-23T11:52:11.502Z,98848.97
2023-04-23T11:54:41.640Z,98855.06
2023-04-23T11:57:08.772Z,98836.94
2023-04-23T11:59:35.839Z,98844.97
2023-04-23T12:02:02.735Z,98832.72
2023-04-23T12:04:31.903Z,98830.47
2023-04-23T12:06:59.576Z,98825.41
2023-04-23T12:09:28.516Z,98827.66
2023-04-23T12:11:58.656Z,98811.00
2023-04-23T12:14:30.936Z,98821.81
2023-04-23T12:17:08.769Z,98817.47
2023-04-23T12:19:35.818Z,98820.16
2023-04-23T12:22:04.007Z,98813.16
2023-04-23T12:24:32.471Z,98809.16
2023-04-23T12:27:02.956Z,98801.38
2023-04-23T12:29:31.542Z,98799.84
2023-04-23T12:32:00.514Z,98798.03
2023-04-23T12:34:27.368Z,98791.53
2023-04-23T12:36:57.808Z,98795.44
2023-04-23T12:39:27.477Z,98780.28
2023-04-23T12:41:56.771Z,98775.81
2023-04-23T12:44:23.842Z,98776.44
2023-04-23T12:47:03.663Z,98773.47
2023-04-23T12:49:31.714Z,98774.91
2023-04-23T12:52:01.650Z,98763.03
2023-04-23T12:54:37.799Z,98760.22
2023-04-23T12:57:07.095Z,98753.09
2023-04-23T12:59:34.708Z,98756.22
2023-04-23T13:02:03.079Z,98752.09
2023-04-23T13:04:31.721Z,98761.97
2023-04-23T13:06:58.597Z,98755.25
2023-04-23T13:09:28.198Z,98752.38
2023-04-23T13:11:55.716Z,98747.16
2023-04-23T13:14:22.567Z,98742.91
2023-04-23T13:16:49.806Z,98743.50
2023-04-23T13:19:17.590Z,98736.41
2023-04-23T13:21:45.204Z,98742.22
2023-04-23T13:24:12.245Z,98733.50
2023-04-23T13:26:39.160Z,98730.41
2023-04-23T13:29:06.247Z,98731.25
2023-04-23T13:31:33.337Z,98724.13
2023-04-23T13:34:01.640Z,98735.63
2023-04-23T13:36:28.681Z,98738.31
2023-04-23T13:38:55.552Z,98738.03
2023-04-23T13:41:22.413Z,98733.47
2023-04-23T13:43:49.222Z,98746.78
2023-04-23T13:46:16.869Z,98742.13
2023-04-23T13:48:43.758Z,98742.50
2023-04-23T13:51:21.790Z,98739.50
2023-04-23T13:53:53.441Z,98743.34
2023-04-23T13:56:20.351Z,98727.91
2023-04-23T13:58:48.987Z,98724.78
2023-04-23T14:01:16.312Z,98718.69
2023-04-23T14:03:43.198Z,98726.56
2023-04-23T14:06:10.056Z,98728.88
2023-04-23T14:08:37.446Z,98732.16
2023-04-23T14:11:04.829Z,98719.63
2023-04-23T14:13:32.936Z,98720.25
2023-04-23T14:16:02.018Z,98710.53
2023-04-23T14:18:30.488Z,98710.94
2023-04-23T14:20:57.470Z,98703.13
2023-04-23T14:23:24.270Z,98710.09
2023-04-23T14:25:59.718Z,98713.09
2023-04-23T14:28:40.022Z,98705.41
2023-04-23T14:31:07.651Z,98704.47
2023-04-23T14:33:34.546Z,98691.84
2023-04-23T14:36:01.451Z,98687.22
2023-04-23T14:38:28.299Z,98697.25
2023-04-23T14:40:56.003Z,98688.25
2023-04-23T14:43:22.942Z,98688.72
2023-04-23T14:45:51.137Z,98689.91
2023-04-23T14:48:18.070Z,98684.47
2023-04-23T14:50:45.009Z,98686.25
2023-04-23T14:53:11.889Z,98684.47
2023-04-23T14:55:40.138Z,98696.66
2023-04-23T14:58:07.086Z,98699.47
2023-04-23T15:00:34.120Z,98701.25
2023-04-23T15:03:02.857Z,98688.06
2023-04-23T15:05:29.997Z,98689.00
2023-04-23T15:07:56.842Z,98684.59
2023-04-23T15:10:23.860Z,98685.28
2023-04-23T15:12:53.535Z,98687.84
2023-04-23T15:15:36.851Z,98686.31
2023-04-23T15:18:08.050Z,98677.84
2023-04-23T15:20:34.870Z,98685.44
2023-04-23T15:23:01.698Z,98677.91
2023-04-23T15:25:30.100Z,98676.13
2023-04-23T15:27:59.799Z,98682.59
2023-04-23T15:30:27.483Z,98683.53
2023-04-23T15:32:57.810Z,98679.91
2023-04-23T15:35:25.852Z,98680.09
2023-04-23T15:37:53.943Z,98682.63
2023-04-23T15:40:20.852Z,98679.50
2023-04-23T15:42:50.121Z,98676.94
2023-04-23T15:45:17.276Z,98677.25
2023-04-23T15:47:44.303Z,98680.25
2023-04-23T15:50:11.553Z,98676.44
2023-04-23T15:52:38.489Z,98680.03
2023-04-23T15:55:06.570Z,98672.09
2023-04-23T15:57:33.413Z,98667.88
2023-04-23T16:00:00.343Z,98678.75
2023-04-23T16:02:27.622Z,98675.69
2023-04-23T16:04:54.835Z,98677.66
2023-04-23T16:07:21.712Z,98664.09
2023-04-23T16:09:48.676Z,98671.94
2023-04-23T16:12:15.741Z,98669.59
2023-04-23T16:14:43.028Z,98681.16
2023-04-23T16:17:09.915Z,98678.66
2023-04-23T16:19:37.494Z,98672.94
2023-04-23T16:22:04.369Z,98678.31
2023-04-23T16:24:31.408Z,98679.19
2023-04-23T16:26:58.394Z,98675.34
2023-04-23T16:29:25.442Z,98676.66
2023-04-23T16:31:52.364Z,98672.84
2023-04-23T16:34:19.259Z,98679.78
2023-04-23T16:36:46.834Z,98662.56
2023-04-23T16:39:13.821Z,98668.84
2023-04-23T16:41:40.720Z,98670.66
2023-04-23T16:44:07.570Z,98662.88
2023-04-23T16:46:34.630Z,98665.00
2023-04-23T16:49:01.590Z,98664.31
2023-04-23T16:51:29.819Z,98672.53
2023-04-23T16:53:57.241Z,98665.22
2023-04-23T16:56:24.382Z,98673.66
2023-04-23T16:58:51.247Z,98671.84
2023-04-23T17:01:18.249Z,98672.03
2023-04-23T17:03:46.145Z,98672.34
2023-04-23T17:06:13.572Z,98671.00
2023-04-23T17:08:40.669Z,98672.97
2023-04-23T17:11:07.938Z,98672.22
2023-04-23T17:13:35.140Z,98676.88
2023-04-23T17:16:03.044Z,98679.84
2023-04-23T17:18:30.142Z,98673.38
2023-04-23T17:20:56.999Z,98677.72
2023-04-23T17:23:23.982Z,98674.44
2023-04-23T17:25:50.900Z,98684.16
2023-04-23T17:28:20.287Z,98677.50
2023-04-23T17:30:50.604Z,98672.44
2023-04-23T17:33:18.206Z,98675.63
2023-04-23T17:35:45.249Z,98680.13
2023-04-23T17:38:12.836Z,98671.56
2023-04-23T17:40:39.841Z,98675.09
2023-04-23T17:43:08.208Z,98674.63
2023-04-23T17:45:35.151Z,98677.38
2023-04-23T17:48:02.220Z,98668.97
2023-04-23T17:50:30.092Z,98678.25
2023-04-23T17:52:57.573Z,98681.38
2023-04-23T17:55:24.858Z,98677.34
2023-04-23T17:57:51.866Z,98687.38
2023-04-23T18:00:19.659Z,98687.94
2023-04-23T18:02:46.787Z,98691.78
2023-04-23T18:05:15.880Z,98690.31
2023-04-23T18:07:43.880Z,98694.03
2023-04-23T18:10:14.481Z,98704.75
2023-04-23T18:12:41.469Z,98700.44
2023-04-23T18:15:11.312Z,98697.06
2023-04-23T18:17:38.764Z,98700.81
2023-04-23T18:20:06.798Z,98703.50
2023-04-23T18:22:33.958Z,98698.41
2023-04-23T18:25:02.264Z,98706.44
2023-04-23T18:27:29.225Z,98705.94
2023-04-23T18:29:57.963Z,98713.78
2023-04-23T18:32:34.072Z,98714.88
2023-04-23T18:35:02.563Z,98709.00
2023-04-23T18:37:42.708Z,98713.63
2023-04-23T18:40:11.006Z,98724.38
2023-04-23T18:42:37.946Z,98711.66
2023-04-23T18:45:05.149Z,98715.38
2023-04-23T18:47:37.179Z,98724.13
2023-04-23T18:50:09.699Z,98734.16
2023-04-23T18:52:36.920Z,98755.19
2023-04-23T18:55:03.919Z,98749.28
2023-04-23T18:57:30.729Z,98739.69
2023-04-23T18:59:57.529Z,98745.69
2023-04-23T19:02:34.570Z,98747.66
2023-04-23T19:05:02.840Z,98738.22
2023-04-23T19:07:29.804Z,98741.72
2023-04-23T19:09:56.615Z,98739.13
2023-04-23T19:12:23.461Z,98734.97
2023-04-23T19:14:50.385Z,98747.19
2023-04-23T19:17:18.770Z,98740.38
2023-04-23T19:19:46.305Z,98732.59
2023-04-23T19:22:13.213Z,98732.75
2023-04-23T19:24:40.023Z,98738.03
2023-04-23T19:27:07.330Z,98745.19
2023-04-23T19:29:34.274Z,98742.56
2023-04-23T19:32:01.415Z,98744.44
2023-04-23T19:34:28.217Z,98743.78
2023-04-23T19:36:55.150Z,98741.28
2023-04-23T19:39:23.806Z,98749.09
2023-04-23T19:41:50.849Z,98745.69
2023-04-23T19:44:17.738Z,98746.63
2023-04-23T19:46:44.600Z,98752.75
2023-04-23T19:49:11.456Z,98746.75
2023-04-23T19:51:39.728Z,98753.66
2023-04-23T19:54:06.626Z,98735.47
2023-04-23T19:56:33.443Z,98736.31
2023-04-23T19:59:00.619Z,98741.56
2023-04-23T20:01:30.089Z,98742.25
2023-04-23T20:03:57.358Z,98741.47
2023-04-23T20:06:24.342Z,98745.69
2023-04-23T20:09:09.737Z,98743.88
2023-04-23T20:11:36.731Z,98743.88
2023-04-23T20:14:04.126Z,98737.84
2023-04-23T20:16:31.086Z,98741.41
2023-04-23T20:18:58.183Z,98745.81
2023-04-23T20:21:25.559Z,98748.47
2023-04-23T20:23:52.418Z,98754.59
2023-04-23T20:26:20.289Z,98750.31
2023-04-23T20:28:48.458Z,98756.44
2023-04-23T20:31:15.707Z,98750.31
2023-04-23T20:33:42.660Z,98755.72
2023-04-23T20:36:11.060Z,98755.84
2023-04-23T20:38:39.163Z,98749.84
2023-04-23T20:41:06.845Z,98769.06
2023-04-23T20:43:36.097Z,98763.84
2023-04-23T20:46:03.234Z,98761.16
2023-04-23T20:48:30.627Z,98765.19
2023-04-23T20:50:58.084Z,98768.44
2023-04-23T20:53:26.735Z,98761.31
2023-04-23T20:55:53.635Z,98761.28
2023-04-23T20:58:20.500Z,98753.47
2023-04-23T21:00:48.034Z,98749.09
2023-04-23T21:03:15.102Z,98747.38
2023-04-23T21:05:44.457Z,98750.19
2023-04-23T21:08:11.825Z,98757.16
2023-04-23T21:10:39.653Z,98751.38
2023-04-23T21:13:12.303Z,98745.22
2023-04-23T21:15:39.801Z,98735.75
2023-04-23T21:18:08.377Z,98747.13
2023-04-23T21:20:36.430Z,98741.22
2023-04-23T21:23:03.388Z,98747.69
2023-04-23T21:25:32.589Z,98743.59
2023-04-23T21:27:59.653Z,98747.03
2023-04-23T21:30:48.187Z,98740.13
2023-04-23T21:33:15.822Z,98738.41
2023-04-23T21:35:43.750Z,98732.41
2023-04-23T21:38:11.600Z,98732.44
2023-04-23T21:40:39.332Z,98728.19
2023-04-23T21:43:07.436Z,98719.56
2023-04-23T21:45:34.420Z,98719.50
2023-04-23T21:48:01.713Z,98724.00
2023-04-23T21:50:30.098Z,98719.00
2023-04-23T21:52:58.726Z,98719.88
2023-04-23T21:55:26.910Z,98723.38
2023-04-23T21:57:56.405Z,98730.28
2023-04-23T22:00:25.508Z,98736.25
2023-04-23T22:02:55.248Z,98732.84
2023-04-23T22:05:23.827Z,98736.44
2023-04-23T22:07:55.504Z,98732.06
2023-04-23T22:10:23.216Z,98728.00
2023-04-23T22:12:50.956Z,98725.28
2023-04-23T22:15:19.481Z,98733.09
2023-04-23T22:17:50.529Z,98735.69
2023-04-23T22:20:19.221Z,98731.34
2023-04-23T22:22:46.263Z,98734.75
2023-04-23T22:25:13.287Z,98745.16
2023-04-23T22:27:41.228Z,98736.53
2023-04-23T22:30:10.173Z,98721.03
2023-04-23T22:32:38.485Z,98735.84
2023-04-23T22:35:06.974Z,98720.28
2023-04-23T22:37:34.635Z,98716.88
2023-04-23T22:40:02.157Z,98722.03
2023-04-23T22:42:29.015Z,98728.13
2023-04-23T22:44:55.864Z,98726.38
2023-04-23T22:47:23.016Z,98719.31
2023-04-23T22:49:50.082Z,98722.03
2023-04-23T22:52:17.366Z,98720.25
2023-04-23T22:54:44.417Z,98714.16
2023-04-23T22:57:11.953Z,98710.66
2023-04-23T22:59:42.134Z,98722.75
2023-04-23T23:02:09.312Z,98711.50
2023-04-23T23:04:38.593Z,98722.81
2023-04-23T23:07:06.821Z,98725.34
2023-04-23T23:09:33.717Z,98725.38
2023-04-23T23:12:02.629Z,98717.59
2023-04-23T23:14:29.975Z,98726.19
2023-04-23T23:16:57.717Z,98721.81
2023-04-23T23:19:27.204Z,98725.22
2023-04-23T23:21:54.380Z,98726.09
2023-04-23T23:24:22.952Z,98714.78
2023-04-23T23:26:50.620Z,98718.13
2023-04-23T23:29:17.659Z,98713.00
2023-04-23T23:31:44.780Z,98713.78
2023-04-23T23:34:12.489Z,98712.06
2023-04-23T23:36:39.528Z,98700.84
2023-04-23T23:39:06.975Z,98705.88
2023-04-23T23:41:33.961Z,98710.25
2023-04-23T23:44:01.130Z,98705.88
2023-04-23T23:46:28.199Z,98710.25
2023-04-23T23:48:55.584Z,98709.56
2023-04-23T23:51:22.495Z,98712.94
2023-04-23T23:53:49.401Z,98703.63
2023-04-23T23:56:16.322Z,98709.00
2023-04-23T23:58:43.235Z,98702.94
